Time;durP1;ratioP1;P1;durP2;ratioP2;P2;SDS_P1;SDS_P2;PMS_P1;PMS_P2;Temp;Humidity;BMP_temperature;BMP_pressure;BME280_temperature;BME280_humidity;BME280_pressure;Samples;Min_cycle;Max_cycle;Signal;HPM_P1;HPM_P2
2021/10/21 00:02:06;;;;;;;14.13;8.07;;;;;;;15.05;76.59;98886.81;5064458;28;20177;-71
2021/10/21 00:04:32;;;;;;;10.20;8.37;;;;;;;15.10;76.51;98884.88;5064115;28;20177;-71
2021/10/21 00:06:57;;;;;;;8.60;7.63;;;;;;;15.20;75.94;98877.47;5081501;28;20452;-71
2021/10/21 00:09:22;;;;;;;9.43;8.13;;;;;;;15.05;76.29;98881.56;5081927;28;20249;-71
2021/10/21 00:11:47;;;;;;;8.70;7.80;;;;;;;15.25;75.71;98886.03;5081426;28;20173;-72
2021/10/21 00:14:13;;;;;;;10.40;7.90;;;;;;;15.30;75.46;98881.47;5081446;28;20219;-71
2021/10/21 00:16:38;;;;;;;11.17;8.07;;;;;;;15.32;75.09;98858.59;5081473;28;20449;-71
2021/10/21 00:19:04;;;;;;;12.23;7.70;;;;;;;15.15;76.07;98850.56;5081544;28;20191;-71
2021/10/21 00:21:29;;;;;;;11.90;7.73;;;;;;;15.31;75.43;98846.38;5081173;28;20165;-70
2021/10/21 00:23:54;;;;;;;8.30;7.50;;;;;;;15.29;75.87;98842.16;5081679;28;20226;-71
2021/10/21 00:26:20;;;;;;;9.47;8.40;;;;;;;15.52;75.26;98835.94;5081523;28;20263;-71
2021/10/21 00:28:45;;;;;;;8.00;7.20;;;;;;;15.20;76.67;98835.47;5081224;28;20215;-72
2021/10/21 00:31:10;;;;;;;11.50;9.03;;;;;;;15.57;76.13;98838.38;5081525;28;20261;-71
2021/10/21 00:33:35;;;;;;;11.07;7.67;;;;;;;15.64;76.16;98832.81;5080963;28;20232;-71
2021/10/21 00:36:01;;;;;;;11.77;7.90;;;;;;;15.39;77.06;98817.22;5081004;28;20645;-71
2021/10/21 00:38:26;;;;;;;10.70;8.10;;;;;;;15.58;76.13;98811.19;5081638;28;20553;-71
2021/10/21 00:40:51;;;;;;;10.03;8.70;;;;;;;15.59;76.30;98816.38;5080939;28;20200;-71
2021/10/21 00:43:17;;;;;;;10.60;9.47;;;;;;;15.80;75.83;98809.41;5080877;28;20173;-73
2021/10/21 00:45:42;;;;;;;9.47;8.20;;;;;;;15.77;76.09;98814.75;5081637;28;20189;-70
2021/10/21 00:48:08;;;;;;;10.17;7.87;;;;;;;15.59;76.59;98798.00;5080990;28;20180;-69
2021/10/21 00:50:34;;;;;;;9.23;8.33;;;;;;;15.21;78.15;98787.31;5080677;28;20225;-71
2021/10/21 00:53:00;;;;;;;12.93;8.17;;;;;;;15.51;76.41;98775.63;5081098;28;20826;-71
2021/10/21 00:55:27;;;;;;;9.90;8.93;;;;;;;15.62;76.75;98761.09;5080792;28;20176;-71
2021/10/21 00:57:53;;;;;;;8.10;7.43;;;;;;;15.56;76.45;98750.00;5063686;28;20362;-71
2021/10/21 01:00:18;;;;;;;11.87;7.90;;;;;;;15.54;76.65;98734.31;5081061;28;20530;-71
2021/10/21 01:02:43;;;;;;;10.13;8.00;;;;;;;15.00;78.54;98718.19;5080572;28;20248;-71
2021/10/21 01:05:09;;;;;;;10.63;7.10;;;;;;;15.26;77.71;98701.38;5080510;28;20270;-71
2021/10/21 01:07:35;;;;;;;7.63;7.00;;;;;;;15.14;78.05;98704.47;5081026;28;20176;-71
2021/10/21 01:10:01;;;;;;;8.90;7.50;;;;;;;15.30;77.13;98686.31;5080461;28;20179;-71
2021/10/21 01:12:27;;;;;;;8.23;7.33;;;;;;;15.15;77.44;98675.56;5080265;28;20534;-71
2021/10/21 01:14:52;;;;;;;8.50;7.20;;;;;;;14.81;79.13;98670.88;5080884;28;20491;-71
2021/10/21 01:17:18;;;;;;;8.70;7.60;;;;;;;15.10;77.99;98667.03;5080509;28;20182;-71
2021/10/21 01:19:43;;;;;;;7.93;7.00;;;;;;;14.84;79.00;98652.38;5080185;28;20169;-71
2021/10/21 01:22:09;;;;;;;10.00;7.00;;;;;;;15.37;77.08;98645.78;5080521;28;20176;-72
2021/10/21 01:24:34;;;;;;;8.17;7.33;;;;;;;15.37;77.03;98642.28;5079920;28;20262;-71
2021/10/21 01:27:00;;;;;;;9.07;7.53;;;;;;;14.97;78.89;98635.19;5080183;28;20417;-70
2021/10/21 01:29:26;;;;;;;9.60;7.53;;;;;;;15.02;78.39;98621.91;5080675;28;20214;-71
2021/10/21 01:31:53;;;;;;;9.53;7.30;;;;;;;14.82;79.42;98609.63;5079959;28;20173;-71
2021/10/21 01:34:18;;;;;;;8.30;7.43;;;;;;;14.82;79.20;98594.72;5046208;28;20925;-71
2021/10/21 01:36:52;;;;;;;8.30;7.50;;;;;;;14.57;80.18;98584.41;5085021;28;20411;-71
2021/10/21 01:39:18;;;;;;;8.47;7.67;;;;;;;14.88;79.73;98579.66;5080478;28;20450;-71
2021/10/21 01:41:43;;;;;;;8.90;6.80;;;;;;;14.86;79.37;98569.22;5063775;28;20502;-72
2021/10/21 01:44:09;;;;;;;7.27;6.43;;;;;;;14.64;79.43;98538.66;5088465;28;20162;-71
2021/10/21 01:46:34;;;;;;;10.80;6.40;;;;;;;14.79;79.01;98534.53;5085364;28;20191;-71
2021/10/21 01:48:59;;;;;;;8.03;7.33;;;;;;;14.57;80.01;98520.59;5087289;28;20173;-71
2021/10/21 01:51:25;;;;;;;8.60;7.10;;;;;;;14.99;79.30;98520.56;5081022;28;20231;-70
2021/10/21 01:53:50;;;;;;;10.83;6.87;;;;;;;15.14;78.81;98515.50;5062399;28;20254;-69
2021/10/21 01:56:15;;;;;;;7.80;7.00;;;;;;;14.79;79.30;98516.16;5079237;28;20177;-70
2021/10/21 01:58:41;;;;;;;6.20;5.70;;;;;;;14.62;80.43;98498.50;5062712;28;20211;-71
2021/10/21 02:01:06;;;;;;;7.30;6.50;;;;;;;14.84;79.68;98483.63;5079195;28;20200;-71
2021/10/21 02:03:31;;;;;;;7.70;6.70;;;;;;;14.97;79.26;98493.50;5079555;28;20172;-70
2021/10/21 02:05:57;;;;;;;7.70;6.33;;;;;;;15.00;79.01;98497.78;5079549;28;20193;-71
2021/10/21 02:08:22;;;;;;;7.00;6.30;;;;;;;14.88;79.82;98480.81;5061855;28;20181;-70
2021/10/21 02:10:48;;;;;;;6.73;5.97;;;;;;;15.07;78.82;98470.38;5078830;28;20168;-69
2021/10/21 02:13:13;;;;;;;7.83;5.97;;;;;;;15.05;79.01;98459.06;5079331;28;20268;-71
2021/10/21 02:15:39;;;;;;;6.33;5.80;;;;;;;15.03;79.10;98450.41;5079200;28;20173;-70
2021/10/21 02:18:05;;;;;;;8.30;6.43;;;;;;;14.85;80.40;98451.25;5078995;28;20184;-70
2021/10/21 02:20:30;;;;;;;11.33;7.90;;;;;;;14.85;81.04;98438.13;5061738;28;20481;-70
2021/10/21 02:22:56;;;;;;;7.30;6.60;;;;;;;14.68;82.39;98421.38;5061417;28;20169;-70
2021/10/21 02:25:21;;;;;;;7.30;6.53;;;;;;;14.73;81.80;98419.38;5078711;28;20176;-70
2021/10/21 02:27:47;;;;;;;7.63;6.90;;;;;;;14.96;81.02;98407.00;5079279;28;20194;-69
2021/10/21 02:30:13;;;;;;;8.30;6.63;;;;;;;14.97;81.79;98409.56;5081009;28;20200;-72
2021/10/21 02:32:39;;;;;;;7.30;6.57;;;;;;;14.97;82.28;98392.97;5080949;28;20204;-71
2021/10/21 02:35:06;;;;;;;8.23;6.97;;;;;;;14.76;82.70;98395.66;5063141;28;20476;-70
2021/10/21 02:37:32;;;;;;;8.33;6.83;;;;;;;14.33;84.02;98384.44;5078686;28;20180;-71
2021/10/21 02:39:57;;;;;;;7.27;6.50;;;;;;;14.31;85.93;98363.53;5078646;28;20416;-71
2021/10/21 02:42:22;;;;;;;8.30;7.40;;;;;;;14.20;85.28;98364.91;5078879;28;20488;-71
2021/10/21 02:44:47;;;;;;;9.03;6.13;;;;;;;14.51;84.00;98329.47;5078530;28;20542;-71
2021/10/21 02:47:13;;;;;;;7.70;6.43;;;;;;;14.64;83.93;98309.69;5078681;28;20168;-71
2021/10/21 02:49:38;;;;;;;7.13;6.43;;;;;;;14.49;83.09;98327.78;5067035;28;20310;-71
2021/10/21 02:52:04;;;;;;;7.93;6.30;;;;;;;14.73;82.37;98275.13;5098531;28;20180;-71
2021/10/21 02:54:30;;;;;;;7.00;6.30;;;;;;;14.89;81.23;98295.41;5098665;28;20584;-71
2021/10/21 02:56:56;;;;;;;6.83;6.00;;;;;;;15.03;80.47;98279.00;5098583;28;20165;-71
2021/10/21 02:59:21;;;;;;;7.60;6.10;;;;;;;14.20;83.64;98249.63;5098681;28;20418;-71
2021/10/21 03:01:46;;;;;;;7.20;6.07;;;;;;;14.63;82.48;98237.19;5098854;28;20164;-71
2021/10/21 03:04:13;;;;;;;6.20;5.67;;;;;;;14.93;80.45;98244.50;5098483;28;20190;-72
2021/10/21 03:06:39;;;;;;;6.80;5.80;;;;;;;15.22;78.03;98211.59;5097636;28;20245;-72
2021/10/21 03:09:04;;;;;;;6.30;5.70;;;;;;;14.42;81.10;98184.81;5099015;28;20411;-71
2021/10/21 03:11:29;;;;;;;9.13;5.90;;;;;;;13.50;85.26;98137.47;5098238;28;20209;-71
2021/10/21 03:13:54;;;;;;;15.03;7.83;;;;;;;13.93;84.50;98116.34;5098332;28;20208;-70
2021/10/21 03:16:20;;;;;;;7.20;6.13;;;;;;;14.01;85.11;98145.66;5098469;28;20517;-71
2021/10/21 03:18:45;;;;;;;8.07;7.27;;;;;;;14.54;83.64;98170.25;5098175;28;20549;-70
2021/10/21 03:21:11;;;;;;;6.87;6.27;;;;;;;14.60;83.03;98179.59;5098336;28;20268;-72
2021/10/21 03:23:36;;;;;;;8.40;7.30;;;;;;;13.76;85.23;98152.03;5098672;28;20164;-71
2021/10/21 03:26:02;;;;;;;8.50;7.73;;;;;;;14.26;82.57;98144.50;5097513;28;20450;-71
2021/10/21 03:28:27;;;;;;;8.20;7.50;;;;;;;14.59;81.10;98094.84;5098096;28;20267;-71
2021/10/21 03:30:52;;;;;;;10.27;8.00;;;;;;;13.79;85.47;98067.25;5098637;28;20164;-71
2021/10/21 03:33:17;;;;;;;8.33;7.63;;;;;;;14.06;84.94;98031.03;5097342;28;20211;-71
2021/10/21 03:35:43;;;;;;;9.40;7.00;;;;;;;14.26;84.39;98023.97;5098021;28;20184;-70
2021/10/21 03:38:08;;;;;;;9.60;8.70;;;;;;;14.20;85.04;98008.56;5098724;28;20173;-71
2021/10/21 03:40:34;;;;;;;10.27;9.27;;;;;;;14.18;85.25;98011.25;5097047;28;20175;-71
2021/10/21 03:42:59;;;;;;;9.50;8.70;;;;;;;14.00;85.95;98005.13;5097880;28;20252;-71
2021/10/21 03:45:25;;;;;;;13.43;9.33;;;;;;;14.27;85.01;98004.69;5098624;28;20554;-70
2021/10/21 03:47:50;;;;;;;10.07;7.90;;;;;;;13.85;87.12;97988.38;5097968;28;20184;-71
2021/10/21 03:50:17;;;;;;;8.70;7.80;;;;;;;14.17;86.29;97974.63;5087921;28;20555;-71
2021/10/21 03:52:42;;;;;;;10.93;9.17;;;;;;;14.09;87.33;97981.09;5044778;28;20555;-71
2021/10/21 03:55:07;;;;;;;8.70;7.97;;;;;;;14.11;86.22;97983.63;5077868;28;20446;-71
2021/10/21 03:57:33;;;;;;;10.00;8.63;;;;;;;14.26;86.32;97998.63;5077605;28;20173;-71
2021/10/21 03:59:58;;;;;;;8.70;7.80;;;;;;;13.73;88.68;98012.53;5078108;28;20172;-70
2021/10/21 04:02:23;;;;;;;8.87;7.97;;;;;;;13.95;87.74;97986.16;5059917;28;20218;-71
2021/10/21 04:04:49;;;;;;;10.70;9.30;;;;;;;14.60;86.12;97978.56;5077513;28;20177;-70
2021/10/21 04:07:14;;;;;;;13.50;10.70;;;;;;;15.01;84.21;98010.63;5078409;28;20172;-70
2021/10/21 04:09:39;;;;;;;10.53;9.43;;;;;;;14.75;85.28;98063.50;5077559;28;20195;-71
2021/10/21 04:12:05;;;;;;;9.70;8.70;;;;;;;14.60;86.09;98053.72;5077264;28;20165;-72
2021/10/21 04:14:30;;;;;;;12.33;9.97;;;;;;;14.55;86.46;98035.63;5077733;28;20261;-71
2021/10/21 04:16:56;;;;;;;5.73;5.23;;;;;;;13.90;76.24;98011.75;5077662;28;20177;-71
2021/10/21 04:19:21;;;;;;;9.43;3.93;;;;;;;13.95;74.56;98047.25;5080381;28;20184;-70
2021/10/21 04:21:46;;;;;;;4.43;3.20;;;;;;;13.87;72.75;98004.88;5081797;28;20184;-70
2021/10/21 04:24:11;;;;;;;4.77;3.40;;;;;;;13.89;74.08;98007.41;5081153;28;20184;-71
2021/10/21 04:26:37;;;;;;;4.60;3.20;;;;;;;13.64;72.69;97998.97;5081257;28;20495;-71
2021/10/21 04:29:03;;;;;;;3.10;2.80;;;;;;;13.51;73.48;97984.75;5081574;28;20264;-71
2021/10/21 04:31:30;;;;;;;3.60;3.00;;;;;;;13.42;75.05;97986.03;5081205;28;20264;-70
2021/10/21 04:33:55;;;;;;;3.47;3.27;;;;;;;13.66;76.46;97959.63;5081256;28;20634;-70
2021/10/21 04:36:20;;;;;;;3.70;3.40;;;;;;;13.26;76.88;97961.44;5081492;28;20553;-70
2021/10/21 04:38:46;;;;;;;3.60;3.27;;;;;;;13.62;76.10;97961.50;5080955;28;20177;-70
2021/10/21 04:41:11;;;;;;;4.67;4.10;;;;;;;13.35;76.75;97970.66;5080527;28;20437;-69
2021/10/21 04:43:36;;;;;;;5.70;4.23;;;;;;;13.55;77.35;97964.53;5081533;28;20176;-71
2021/10/21 04:46:02;;;;;;;9.90;4.80;;;;;;;13.30;77.16;97948.16;5081020;28;20181;-70
2021/10/21 04:48:27;;;;;;;4.93;4.53;;;;;;;13.57;76.85;97955.69;5063382;28;20180;-70
2021/10/21 04:50:52;;;;;;;5.87;4.40;;;;;;;13.31;76.36;97949.88;5080783;28;20216;-71
2021/10/21 04:53:17;;;;;;;6.20;4.67;;;;;;;13.59;76.70;97937.28;5081041;28;20209;-70
2021/10/21 04:55:43;;;;;;;4.53;3.93;;;;;;;13.62;75.13;97934.50;5081910;28;20442;-70
2021/10/21 04:58:08;;;;;;;5.27;4.20;;;;;;;13.48;76.35;97943.03;5083543;28;20188;-69
2021/10/21 05:00:34;;;;;;;5.20;4.30;;;;;;;13.14;76.60;97940.16;5083401;28;20177;-70
2021/10/21 05:03:11;;;;;;;5.60;4.10;;;;;;;13.18;77.18;97960.94;5083369;28;20168;-71
2021/10/21 05:05:37;;;;;;;5.53;4.47;;;;;;;13.23;77.10;97954.59;5081070;28;20498;-70
2021/10/21 05:08:03;;;;;;;4.10;3.80;;;;;;;13.31;77.40;97991.72;5062950;28;20422;-70
2021/10/21 05:10:29;;;;;;;4.77;3.90;;;;;;;13.42;77.21;98008.72;5080303;28;20467;-71
2021/10/21 05:12:54;;;;;;;3.53;3.00;;;;;;;12.84;76.06;98009.53;5082766;28;20527;-70
2021/10/21 05:15:19;;;;;;;4.33;3.00;;;;;;;12.23;79.13;98013.81;5083231;28;20172;-70
2021/10/21 05:17:45;;;;;;;4.13;3.07;;;;;;;12.32;78.94;98029.13;5064272;28;20492;-70
2021/10/21 05:20:11;;;;;;;3.63;2.73;;;;;;;12.07;79.59;98022.28;5080425;28;20173;-70
2021/10/21 05:22:36;;;;;;;4.60;2.83;;;;;;;12.44;78.39;98026.00;5080591;28;20168;-71
2021/10/21 05:25:02;;;;;;;3.70;3.20;;;;;;;12.40;78.32;98029.66;5080128;28;20430;-71
2021/10/21 05:27:27;;;;;;;3.90;2.53;;;;;;;12.21;78.79;98031.34;5080003;28;20169;-70
2021/10/21 05:29:52;;;;;;;3.30;3.00;;;;;;;12.44;78.19;98018.16;5079276;28;20165;-71
2021/10/21 05:32:18;;;;;;;3.00;2.70;;;;;;;12.54;77.41;98025.63;5079878;28;20177;-70
2021/10/21 05:34:45;;;;;;;5.53;3.50;;;;;;;12.63;77.23;98017.38;5079677;28;20605;-70
2021/10/21 05:37:11;;;;;;;3.40;3.10;;;;;;;12.49;77.02;98009.28;5063626;28;20443;-69
2021/10/21 05:39:36;;;;;;;6.23;3.60;;;;;;;12.54;76.65;98020.38;5079872;28;20442;-69
2021/10/21 05:42:02;;;;;;;3.20;2.80;;;;;;;12.83;76.45;98013.06;5079770;28;20235;-70
2021/10/21 05:44:27;;;;;;;3.27;3.00;;;;;;;12.60;76.22;98023.59;5062613;28;20204;-71
2021/10/21 05:46:53;;;;;;;3.47;2.87;;;;;;;12.56;76.36;98015.97;5079690;28;20181;-71
2021/10/21 05:49:18;;;;;;;3.10;2.80;;;;;;;12.53;76.08;98016.06;5081226;28;20177;-71
2021/10/21 05:51:44;;;;;;;3.80;3.10;;;;;;;12.36;76.69;98015.00;5079976;28;20225;-70
2021/10/21 05:54:09;;;;;;;3.57;3.03;;;;;;;12.66;75.51;98017.25;5079488;28;20535;-71
2021/10/21 05:56:35;;;;;;;3.90;2.93;;;;;;;12.58;75.20;98011.50;5079509;28;20201;-71
2021/10/21 05:59:00;;;;;;;6.27;3.47;;;;;;;12.89;74.63;98011.03;5080170;28;20222;-70
2021/10/21 06:01:25;;;;;;;3.03;2.70;;;;;;;12.99;74.28;98008.88;5079283;28;20230;-70
2021/10/21 06:03:50;;;;;;;4.73;3.30;;;;;;;12.77;74.92;98003.72;5062075;28;20208;-70
2021/10/21 06:06:16;;;;;;;5.47;3.47;;;;;;;13.02;74.32;98000.88;5079765;28;20185;-71
2021/10/21 06:08:41;;;;;;;4.00;3.40;;;;;;;13.07;73.44;97991.06;5079258;28;20173;-69
2021/10/21 06:11:08;;;;;;;7.97;4.27;;;;;;;13.06;74.22;97994.59;5078980;28;20215;-71
2021/10/21 06:13:34;;;;;;;6.47;3.27;;;;;;;12.96;73.86;97995.91;5079751;28;20440;-70
2021/10/21 06:15:59;;;;;;;5.80;2.87;;;;;;;12.72;75.04;97987.38;5078936;28;20405;-71
2021/10/21 06:18:25;;;;;;;4.10;3.60;;;;;;;12.87;74.78;97983.28;5079039;28;20415;-71
2021/10/21 06:20:50;;;;;;;5.50;3.03;;;;;;;12.79;74.68;97979.22;5079409;28;20165;-71
2021/10/21 06:23:15;;;;;;;5.77;3.10;;;;;;;12.87;75.19;97978.03;5078783;28;20534;-70
2021/10/21 06:25:41;;;;;;;6.03;3.37;;;;;;;13.08;73.25;97982.31;5078837;28;20192;-71
2021/10/21 06:28:06;;;;;;;3.43;2.70;;;;;;;13.03;73.28;97978.19;5079403;28;20180;-70
2021/10/21 06:30:31;;;;;;;4.37;3.07;;;;;;;12.78;75.25;97980.13;5078612;28;20176;-70
2021/10/21 06:32:57;;;;;;;5.80;3.70;;;;;;;12.86;74.35;97966.72;5078729;28;20208;-71
2021/10/21 06:35:23;;;;;;;3.37;3.00;;;;;;;12.66;75.61;97970.19;5079215;28;20169;-70
2021/10/21 06:37:48;;;;;;;11.00;4.60;;;;;;;12.88;75.47;97949.22;5078701;28;20480;-70
2021/10/21 06:40:15;;;;;;;5.03;3.93;;;;;;;12.59;76.16;97955.72;5078603;28;20436;-70
2021/10/21 06:42:41;;;;;;;5.40;4.13;;;;;;;12.89;75.93;97947.44;5078942;28;20177;-70
2021/10/21 06:45:06;;;;;;;4.13;3.60;;;;;;;12.52;76.94;97942.06;5078461;28;20771;-70
2021/10/21 06:47:33;;;;;;;4.97;3.63;;;;;;;12.73;77.94;97940.28;5061226;28;20412;-70
2021/10/21 06:49:59;;;;;;;4.90;3.33;;;;;;;12.76;76.97;97945.38;5078588;28;20307;-70
2021/10/21 06:52:25;;;;;;;6.27;3.43;;;;;;;12.50;78.48;97938.66;5061037;28;20477;-70
2021/10/21 06:54:50;;;;;;;4.20;3.20;;;;;;;12.21;80.01;97938.16;5078484;28;20405;-69
2021/10/21 06:57:15;;;;;;;5.10;3.73;;;;;;;12.53;80.24;97940.28;5078213;28;20169;-70
2021/10/21 06:59:41;;;;;;;4.00;3.60;;;;;;;12.25;81.17;97944.09;5078216;28;20260;-70
2021/10/21 07:02:06;;;;;;;8.37;3.90;;;;;;;12.26;81.59;97936.19;5078686;28;20167;-70
2021/10/21 07:04:32;;;;;;;5.67;4.20;;;;;;;12.55;81.23;97931.47;5078089;28;20230;-70
2021/10/21 07:06:59;;;;;;;5.93;3.63;;;;;;;11.73;82.53;97927.03;5078293;28;20180;-70
2021/10/21 07:09:24;;;;;;;6.40;3.73;;;;;;;11.69;83.65;97917.63;5078520;28;20171;-70
2021/10/21 07:11:49;;;;;;;4.50;3.77;;;;;;;11.90;82.29;97904.59;5078000;28;20415;-70
2021/10/21 07:14:16;;;;;;;4.87;4.30;;;;;;;11.85;83.56;97903.94;5078169;28;20208;-69
2021/10/21 07:16:41;;;;;;;4.50;3.40;;;;;;;11.54;83.20;97908.66;5078430;28;20165;-70
2021/10/21 07:19:07;;;;;;;5.47;3.20;;;;;;;11.80;82.24;97910.19;5078178;28;20696;-70
2021/10/21 07:21:32;;;;;;;3.88;3.30;;;;;;;12.02;82.49;97913.72;5077122;28;20441;-70
2021/10/21 07:23:57;;;;;;;3.10;2.80;;;;;;;11.76;83.49;97900.81;5087225;28;20153;-71
2021/10/21 07:26:23;;;;;;;2.80;2.40;;;;;;;11.88;83.28;97911.63;5074113;28;20191;-70
2021/10/21 07:28:48;;;;;;;2.70;2.50;;;;;;;11.75;82.43;97913.91;5078055;28;20177;-71
2021/10/21 07:31:16;;;;;;;3.33;3.00;;;;;;;11.61;82.86;97920.53;5089405;28;20199;-71
2021/10/21 07:33:42;;;;;;;3.37;2.43;;;;;;;11.31;82.84;97906.94;5080906;28;20622;-72
2021/10/21 07:36:08;;;;;;;2.37;2.17;;;;;;;11.34;82.36;97921.63;5098154;28;20433;-70
2021/10/21 07:38:33;;;;;;;2.27;2.00;;;;;;;11.27;82.37;97923.59;5096983;28;20418;-71
2021/10/21 07:40:58;;;;;;;2.43;2.23;;;;;;;11.21;82.26;97931.69;5077698;28;20173;-71
2021/10/21 07:43:24;;;;;;;2.57;2.10;;;;;;;11.43;82.10;97929.97;5077933;28;20168;-71
2021/10/21 07:45:49;;;;;;;2.90;2.70;;;;;;;11.26;81.79;97919.31;5078251;28;20157;-71
2021/10/21 07:48:14;;;;;;;2.37;2.17;;;;;;;11.31;82.71;97927.78;5060325;28;20271;-70
2021/10/21 07:50:40;;;;;;;2.40;2.20;;;;;;;11.36;83.45;97928.47;5077717;28;20216;-70
2021/10/21 07:53:06;;;;;;;2.57;2.37;;;;;;;11.21;83.04;97937.75;5079011;28;20497;-70
2021/10/21 07:55:34;;;;;;;2.80;2.60;;;;;;;11.08;83.52;97921.72;5083367;28;20176;-71
2021/10/21 07:58:00;;;;;;;2.50;2.30;;;;;;;11.48;82.93;97932.38;5102596;28;20168;-69
2021/10/21 08:00:26;;;;;;;3.30;2.23;;;;;;;10.98;84.24;97930.78;5102688;28;20380;-69
2021/10/21 08:02:51;;;;;;;2.30;2.10;;;;;;;10.97;83.74;97956.91;5101914;28;20168;-70
2021/10/21 08:05:16;;;;;;;3.37;2.63;;;;;;;11.17;84.23;97962.22;5101846;28;20718;-68
2021/10/21 08:07:46;;;;;;;3.27;2.40;;;;;;;11.42;83.69;97966.50;5104095;28;20175;-68
2021/10/21 08:10:13;;;;;;;2.77;2.57;;;;;;;11.66;83.40;97966.47;5110119;28;20168;-68
2021/10/21 08:12:38;;;;;;;2.90;2.70;;;;;;;11.49;83.11;97978.44;5107701;28;20421;-69
2021/10/21 08:15:05;;;;;;;4.93;2.50;;;;;;;11.52;81.84;97995.72;5108875;28;20398;-70
2021/10/21 08:17:31;;;;;;;2.83;2.33;;;;;;;11.56;82.05;98012.97;5083900;28;20168;-68
2021/10/21 08:19:56;;;;;;;2.40;2.20;;;;;;;11.42;81.85;98021.28;5101669;28;20432;-69
2021/10/21 08:22:22;;;;;;;3.07;2.60;;;;;;;11.79;80.67;98031.16;5084229;28;20518;-69
2021/10/21 08:24:47;;;;;;;4.17;2.30;;;;;;;12.01;79.81;98055.63;5101527;28;20207;-69
2021/10/21 08:27:13;;;;;;;3.30;2.47;;;;;;;11.68;81.14;98090.78;5101505;28;20365;-69
2021/10/21 08:29:38;;;;;;;3.07;2.20;;;;;;;11.82;80.91;98115.50;5101354;28;20179;-70
2021/10/21 08:32:04;;;;;;;4.40;2.30;;;;;;;11.77;80.63;98132.19;5081126;28;20169;-71
2021/10/21 08:34:33;;;;;;;4.13;1.77;;;;;;;11.67;80.21;98163.91;5080984;28;20604;-72
2021/10/21 08:36:58;;;;;;;4.87;3.83;;;;;;;11.62;80.83;98179.72;5082245;28;20655;-72
2021/10/21 08:39:23;;;;;;;6.00;3.00;;;;;;;11.77;80.36;98204.41;5081139;28;20387;-71
2021/10/21 08:41:49;;;;;;;2.50;2.20;;;;;;;11.71;81.04;98215.94;5080850;28;20168;-73
2021/10/21 08:44:15;;;;;;;3.00;2.00;;;;;;;11.50;80.22;98228.00;5081396;28;20171;-70
2021/10/21 08:46:44;;;;;;;2.30;2.10;;;;;;;11.66;80.05;98243.94;5080967;28;20165;-70
2021/10/21 08:49:10;;;;;;;2.20;2.00;;;;;;;11.77;78.99;98267.06;5081288;28;20587;-70
2021/10/21 08:51:35;;;;;;;3.23;2.50;;;;;;;11.57;79.44;98280.81;5097260;28;20450;-69
2021/10/21 08:54:02;;;;;;;5.57;3.00;;;;;;;11.94;77.97;98295.19;5101080;28;20454;-69
2021/10/21 08:56:28;;;;;;;3.90;2.43;;;;;;;11.75;79.88;98314.09;5101144;28;20195;-69
2021/10/21 08:58:54;;;;;;;5.47;2.67;;;;;;;11.59;79.81;98328.56;5100347;28;20407;-70
2021/10/21 09:01:23;;;;;;;4.20;2.27;;;;;;;11.29;81.08;98336.50;5100798;28;20164;-70
2021/10/21 09:04:02;;;;;;;4.47;2.40;;;;;;;11.60;79.61;98353.78;5101187;28;20365;-70
2021/10/21 09:09:04;;;;;;;4.00;2.80;;;;;;;12.27;76.35;98384.59;5100203;28;20389;-70
2021/10/21 09:11:30;;;;;;;5.30;2.37;;;;;;;12.26;76.56;98402.94;5100689;28;20425;-69
2021/10/21 09:14:08;;;;;;;5.40;2.50;;;;;;;12.35;77.33;98410.44;5100496;28;20555;-71
2021/10/21 09:16:34;;;;;;;2.50;2.20;;;;;;;12.26;78.06;98432.50;5099873;28;20174;-69
2021/10/21 09:19:13;;;;;;;2.90;2.30;;;;;;;11.82;78.37;98452.25;5100471;28;20414;-71
2021/10/21 09:21:40;;;;;;;4.43;2.83;;;;;;;11.91;78.14;98467.63;5100379;28;20410;-69
2021/10/21 09:24:24;;;;;;;6.30;2.70;;;;;;;11.92;78.59;98477.13;5100722;28;20418;-70
2021/10/21 09:27:11;;;;;;;5.97;2.53;;;;;;;11.86;78.52;98487.78;5100273;28;20472;-70
2021/10/21 09:29:46;;;;;;;7.27;3.40;;;;;;;12.22;78.41;98498.84;5100474;28;20392;-70
2021/10/21 09:32:12;;;;;;;4.23;3.00;;;;;;;11.80;80.14;98518.41;5079185;28;20833;-71
2021/10/21 09:34:43;;;;;;;6.73;3.10;;;;;;;11.79;79.64;98527.13;5079793;28;20441;-72
2021/10/21 09:37:14;;;;;;;5.70;2.40;;;;;;;12.05;79.03;98541.16;5079776;28;20431;-71
2021/10/21 09:39:49;;;;;;;4.40;2.60;;;;;;;11.91;80.03;98544.19;5079137;28;20418;-71
2021/10/21 09:42:14;;;;;;;6.90;2.60;;;;;;;11.40;81.43;98550.91;5079821;28;20473;-69
2021/10/21 09:44:41;;;;;;;4.73;2.90;;;;;;;11.84;81.18;98560.06;5078986;28;20423;-69
2021/10/21 09:47:21;;;;;;;11.47;3.60;;;;;;;11.76;81.99;98582.06;5079821;28;20539;-68
2021/10/21 09:49:55;;;;;;;6.00;3.00;;;;;;;12.00;81.04;98584.88;5076018;28;20464;-69
2021/10/21 09:52:23;;;;;;;12.03;3.60;;;;;;;11.72;80.48;98598.72;5059357;28;20399;-69
2021/10/21 09:54:49;;;;;;;8.03;3.53;;;;;;;11.84;81.22;98615.78;5059413;28;20426;-69
2021/10/21 09:57:18;;;;;;;8.23;3.17;;;;;;;11.98;80.29;98620.59;5042167;28;20387;-70
2021/10/21 10:00:19;;;;;;;5.03;3.00;;;;;;;11.76;78.98;98631.66;5059514;28;20506;-72
2021/10/21 10:02:45;;;;;;;5.37;2.73;;;;;;;12.03;79.65;98634.38;4959900;28;20510;-71
2021/10/21 10:05:14;;;;;;;5.40;2.90;;;;;;;11.54;79.58;98647.09;5021190;28;20444;-72
2021/10/21 10:07:40;;;;;;;3.43;2.57;;;;;;;11.42;82.06;98653.50;5059303;28;20197;-71
2021/10/21 10:10:05;;;;;;;6.27;3.37;;;;;;;11.08;82.14;98674.38;5059050;28;20517;-72
2021/10/21 10:12:35;;;;;;;7.50;2.93;;;;;;;11.35;83.72;98691.09;5059497;28;20177;-72
2021/10/21 10:15:00;;;;;;;6.00;3.17;;;;;;;11.76;81.18;98698.69;5059203;28;20611;-72
2021/10/21 10:17:27;;;;;;;7.37;3.00;;;;;;;11.44;82.88;98710.84;5059158;28;20499;-69
2021/10/21 10:19:53;;;;;;;4.73;2.80;;;;;;;11.12;82.75;98730.78;5059650;28;20165;-71
2021/10/21 10:22:34;;;;;;;6.33;3.27;;;;;;;11.09;83.71;98746.50;5058754;28;20689;-73
2021/10/21 10:25:00;;;;;;;4.00;3.00;;;;;;;11.27;83.43;98753.00;5041833;28;20173;-74
2021/10/21 10:27:30;;;;;;;5.80;3.07;;;;;;;11.25;83.61;98763.50;5042036;28;20805;-73
2021/10/21 10:30:01;;;;;;;7.70;2.80;;;;;;;11.32;83.69;98786.81;5064101;28;20265;-72
2021/10/21 10:32:43;;;;;;;5.50;3.03;;;;;;;11.59;83.80;98793.94;5099083;28;20411;-71
2021/10/21 10:35:36;;;;;;;5.27;3.30;;;;;;;11.41;83.12;98800.50;5099193;28;20425;-72
2021/10/21 10:38:06;;;;;;;4.10;2.40;;;;;;;12.26;80.21;98807.88;5099962;28;20385;-70
2021/10/21 10:40:37;;;;;;;4.67;2.70;;;;;;;12.43;79.01;98809.97;5100062;28;20445;-73
2021/10/21 10:43:02;;;;;;;4.10;2.63;;;;;;;13.40;75.34;98817.47;5099320;28;20508;-70
2021/10/21 10:45:45;;;;;;;6.40;3.00;;;;;;;13.33;74.27;98821.19;5098984;28;20467;-71
2021/10/21 10:48:11;;;;;;;4.67;3.00;;;;;;;13.31;76.62;98825.59;5081300;28;20172;-72
2021/10/21 10:50:43;;;;;;;4.70;3.53;;;;;;;13.87;74.43;98835.13;5099017;28;20457;-72
2021/10/21 10:53:09;;;;;;;9.47;2.87;;;;;;;12.99;76.46;98845.81;5118963;28;20864;-72
2021/10/21 10:55:41;;;;;;;6.03;2.87;;;;;;;12.91;77.17;98840.81;5119162;28;20409;-71
2021/10/21 10:58:14;;;;;;;6.60;3.00;;;;;;;13.39;75.64;98870.72;5119108;28;20433;-70
2021/10/21 11:00:51;;;;;;;8.00;3.20;;;;;;;12.50;79.58;98883.84;5119166;27;20425;-70
2021/10/21 11:03:32;;;;;;;5.40;3.00;;;;;;;12.24;79.88;98893.25;5119402;28;20424;-70
2021/10/21 11:06:24;;;;;;;6.33;3.10;;;;;;;12.17;81.26;98908.25;5118867;28;20424;-71
2021/10/21 11:08:58;;;;;;;6.00;2.73;;;;;;;12.57;79.58;98906.28;5118709;28;20429;-70
2021/10/21 11:11:55;;;;;;;7.77;4.00;;;;;;;12.72;79.03;98907.59;5118800;28;20405;-73
2021/10/21 11:14:34;;;;;;;7.47;3.10;;;;;;;12.56;79.07;98920.28;5120687;28;20461;-74
2021/10/21 11:16:59;;;;;;;6.57;2.97;;;;;;;13.91;74.71;98935.41;5121573;28;20420;-70
2021/10/21 11:19:39;;;;;;;10.00;2.70;;;;;;;14.86;71.07;98915.50;5119879;28;20428;-73
2021/10/21 11:22:04;;;;;;;7.10;3.90;;;;;;;15.18;70.30;98920.44;5125380;28;20190;-73
2021/10/21 11:24:57;;;;;;;6.67;3.30;;;;;;;14.60;69.91;98921.66;5123039;28;20451;-73
2021/10/21 11:27:41;;;;;;;5.50;3.37;;;;;;;15.06;69.09;98922.63;5120432;28;20170;-73
2021/10/21 11:30:11;;;;;;;6.23;3.63;;;;;;;15.36;67.76;98922.38;5114907;28;20410;-72
2021/10/21 11:32:38;;;;;;;4.23;2.73;;;;;;;15.19;67.31;98932.66;5098393;28;20417;-72
2021/10/21 11:35:05;;;;;;;6.50;3.47;;;;;;;15.87;64.63;98938.75;5098310;28;20414;-71